createdAt,value
2022-11-03T00:01:39.811Z,9.85
2022-11-03T00:04:07.570Z,9.40
2022-11-03T00:06:34.903Z,9.07
2022-11-03T00:09:03.153Z,9.15
2022-11-03T00:11:30.386Z,9.50
2022-11-03T00:13:57.947Z,10.07
2022-11-03T00:16:25.075Z,9.15
2022-11-03T00:18:52.545Z,9.27
2022-11-03T00:21:19.647Z,9.38
2022-11-03T00:23:46.968Z,10.70
2022-11-03T00:26:14.935Z,9.63
2022-11-03T00:28:43.791Z,8.73
2022-11-03T00:31:14.549Z,10.18
2022-11-03T00:33:41.783Z,10.45
2022-11-03T00:36:09.165Z,12.10
2022-11-03T00:38:37.622Z,11.57
2022-11-03T00:41:05.362Z,12.45
2022-11-03T00:43:32.793Z,11.30
2022-11-03T00:45:59.990Z,12.75
2022-11-03T00:48:30.272Z,9.48
2022-11-03T00:51:04.480Z,10.93
2022-11-03T00:53:32.157Z,10.00
2022-11-03T00:55:59.320Z,9.57
2022-11-03T00:58:26.483Z,10.55
2022-11-03T01:01:07.583Z,9.52
2022-11-03T01:03:35.509Z,8.85
2022-11-03T01:06:21.208Z,9.73
2022-11-03T01:08:48.336Z,8.88
2022-11-03T01:11:35.029Z,12.43
2022-11-03T01:14:02.150Z,11.60
2022-11-03T01:16:29.685Z,10.80
2022-11-03T01:18:56.832Z,11.50
2022-11-03T01:21:23.959Z,11.15
2022-11-03T01:23:51.071Z,11.98
2022-11-03T01:26:18.436Z,14.25
2022-11-03T01:28:46.185Z,11.07
2022-11-03T01:31:17.176Z,10.55
2022-11-03T01:33:45.728Z,10.02
2022-11-03T01:36:12.975Z,13.75
2022-11-03T01:38:40.187Z,16.05
2022-11-03T01:41:07.932Z,17.10
2022-11-03T01:43:35.060Z,15.10
2022-11-03T01:46:02.137Z,14.32
2022-11-03T01:48:29.289Z,13.25
2022-11-03T01:50:56.382Z,12.43
2022-11-03T01:53:23.497Z,11.73
2022-11-03T01:55:50.670Z,11.68
2022-11-03T01:58:18.631Z,11.45
2022-11-03T02:00:46.557Z,11.63
2022-11-03T02:03:13.776Z,11.30
2022-11-03T02:05:40.845Z,11.98
2022-11-03T02:10:41.627Z,12.70
2022-11-03T02:13:11.645Z,13.65
2022-11-03T02:15:38.725Z,12.88
2022-11-03T02:18:06.346Z,12.95
2022-11-03T02:20:33.515Z,11.88
2022-11-03T02:23:00.587Z,12.57
2022-11-03T02:25:46.311Z,11.52
2022-11-03T02:28:14.439Z,11.18
2022-11-03T02:30:52.379Z,11.13
2022-11-03T02:33:38.270Z,10.52
2022-11-03T02:36:11.828Z,10.53
2022-11-03T02:38:39.465Z,11.27
2022-11-03T02:41:07.712Z,10.77
2022-11-03T02:43:34.843Z,11.10
2022-11-03T02:46:01.967Z,11.07
2022-11-03T02:48:29.068Z,10.50
2022-11-03T02:50:56.209Z,11.25
2022-11-03T02:53:23.307Z,11.40
2022-11-03T02:55:59.573Z,10.30
2022-11-03T02:58:29.498Z,11.13
2022-11-03T03:01:01.311Z,11.30
2022-11-03T03:03:34.561Z,10.00
2022-11-03T03:06:09.210Z,11.10
2022-11-03T03:08:36.563Z,12.00
2022-11-03T03:11:03.679Z,11.83
2022-11-03T03:13:30.792Z,11.60
2022-11-03T03:16:17.631Z,11.63
2022-11-03T03:18:49.095Z,11.90
2022-11-03T03:21:16.264Z,12.53
2022-11-03T03:23:49.818Z,11.53
2022-11-03T03:26:43.088Z,12.20
2022-11-03T03:29:10.749Z,12.80
2022-11-03T03:31:37.953Z,14.57
2022-11-03T03:34:23.576Z,21.13
2022-11-03T03:36:51.140Z,18.53
2022-11-03T03:39:18.931Z,18.23
2022-11-03T03:41:46.705Z,23.10
2022-11-03T03:44:13.843Z,26.03
2022-11-03T03:46:44.349Z,23.13
2022-11-03T03:49:11.465Z,23.23
2022-11-03T03:51:38.578Z,21.47
2022-11-03T03:54:05.689Z,21.33
2022-11-03T03:56:34.808Z,19.77
2022-11-03T03:59:01.929Z,21.67
2022-11-03T04:01:29.162Z,18.57
2022-11-03T04:03:56.398Z,19.40
2022-11-03T04:06:23.522Z,18.87
2022-11-03T04:08:50.620Z,18.10
2022-11-03T04:11:36.329Z,19.67
2022-11-03T04:14:22.278Z,19.67
2022-11-03T04:17:08.122Z,17.20
2022-11-03T04:19:54.082Z,17.93
2022-11-03T04:22:22.258Z,19.20
2022-11-03T04:24:50.096Z,18.03
2022-11-03T04:27:20.200Z,17.80
2022-11-03T04:29:47.348Z,16.73
2022-11-03T04:32:17.716Z,17.80
2022-11-03T04:34:48.056Z,20.90
2022-11-03T04:37:15.376Z,19.37
2022-11-03T04:42:16.538Z,31.90
2022-11-03T04:44:43.766Z,29.63
2022-11-03T04:47:11.817Z,29.50
2022-11-03T04:49:38.962Z,25.87
2022-11-03T04:52:14.594Z,28.30
2022-11-03T04:54:41.734Z,25.77
2022-11-03T04:57:09.860Z,27.47
2022-11-03T04:59:36.939Z,23.40
2022-11-03T05:02:04.600Z,20.97
2022-11-03T05:04:31.916Z,23.50
2022-11-03T05:06:59.015Z,21.97
2022-11-03T05:09:27.853Z,21.47
2022-11-03T05:11:54.947Z,22.73
2022-11-03T05:14:30.269Z,21.87
2022-11-03T05:16:57.440Z,20.73
2022-11-03T05:19:37.760Z,19.73
2022-11-03T05:22:04.875Z,19.83
2022-11-03T05:24:32.133Z,17.87
2022-11-03T05:26:59.561Z,18.87
2022-11-03T05:29:27.309Z,17.40
2022-11-03T05:31:54.665Z,18.90
2022-11-03T05:34:32.054Z,18.63
2022-11-03T05:36:59.578Z,21.03
2022-11-03T05:39:29.736Z,17.40
2022-11-03T05:41:57.509Z,17.93
2022-11-03T05:44:33.985Z,17.07
2022-11-03T05:47:03.270Z,16.13
2022-11-03T05:49:33.039Z,18.63
2022-11-03T05:52:00.115Z,18.00
2022-11-03T05:54:28.123Z,17.47
2022-11-03T05:56:56.587Z,16.83
2022-11-03T05:59:24.165Z,18.03
2022-11-03T06:01:51.402Z,17.70
2022-11-03T06:04:21.702Z,17.87
2022-11-03T06:06:53.093Z,16.93
2022-11-03T06:09:21.801Z,16.10
2022-11-03T06:11:48.980Z,16.27
2022-11-03T06:14:24.025Z,17.53
2022-11-03T06:16:58.836Z,15.73
2022-11-03T06:19:41.244Z,13.27
2022-11-03T06:22:24.949Z,13.90
2022-11-03T06:24:52.340Z,14.53
2022-11-03T06:27:19.901Z,13.77
2022-11-03T06:29:51.190Z,14.10
2022-11-03T06:32:18.313Z,13.43
2022-11-03T06:34:49.979Z,13.33
2022-11-03T06:37:26.325Z,14.43
2022-11-03T06:39:59.511Z,15.30
2022-11-03T06:42:31.655Z,15.50
2022-11-03T06:44:59.124Z,17.00
2022-11-03T06:47:26.807Z,18.67
2022-11-03T06:49:54.933Z,23.37
2022-11-03T06:52:22.003Z,30.70
2022-11-03T06:54:49.502Z,27.17
2022-11-03T06:57:16.590Z,29.20
2022-11-03T06:59:43.686Z,27.00
2022-11-03T07:02:26.282Z,26.43
2022-11-03T07:04:53.463Z,23.80
2022-11-03T07:07:22.073Z,23.73
2022-11-03T07:09:49.276Z,20.80
2022-11-03T07:12:16.636Z,19.27
2022-11-03T07:14:44.111Z,20.80
2022-11-03T07:17:19.941Z,20.47
2022-11-03T07:19:47.032Z,21.77
2022-11-03T07:22:20.743Z,20.50
2022-11-03T07:24:48.377Z,20.90
2022-11-03T07:27:18.499Z,16.73
2022-11-03T07:29:45.644Z,16.93
2022-11-03T07:32:25.757Z,15.47
2022-11-03T07:34:53.528Z,18.00
2022-11-03T07:37:24.044Z,18.20
2022-11-03T07:39:51.277Z,113.07
2022-11-03T07:42:19.249Z,77.10
2022-11-03T07:44:46.411Z,31.03
2022-11-03T07:47:14.423Z,37.67
2022-11-03T07:49:41.549Z,30.13
2022-11-03T07:52:12.654Z,27.70
2022-11-03T07:54:40.020Z,23.63
2022-11-03T07:57:07.920Z,24.83
2022-11-03T07:59:39.284Z,18.80
2022-11-03T08:02:26.015Z,14.80
2022-11-03T08:04:53.227Z,16.50
2022-11-03T08:07:20.335Z,15.77
2022-11-03T08:09:47.475Z,15.87
2022-11-03T08:12:14.556Z,13.20
2022-11-03T08:14:41.645Z,16.53
2022-11-03T08:17:08.764Z,18.60
2022-11-03T08:19:35.945Z,22.30
2022-11-03T08:22:03.036Z,30.08
2022-11-03T08:24:30.162Z,23.33
2022-11-03T08:26:57.312Z,34.50
2022-11-03T08:29:27.258Z,21.50
2022-11-03T08:31:54.913Z,15.40
2022-11-03T08:34:22.000Z,12.15
2022-11-03T08:36:49.098Z,11.52
2022-11-03T08:39:16.227Z,11.73
2022-11-03T08:41:43.354Z,9.80
2022-11-03T08:44:10.457Z,10.38
2022-11-03T08:46:37.666Z,9.80
2022-11-03T08:49:04.764Z,16.75
2022-11-03T08:51:31.900Z,11.35
2022-11-03T08:53:59.027Z,9.68
2022-11-03T08:56:26.116Z,8.82
2022-11-03T08:58:53.229Z,9.80
2022-11-03T09:01:20.445Z,11.15
2022-11-03T09:03:47.692Z,9.30
2022-11-03T09:06:14.857Z,8.70
2022-11-03T09:11:29.146Z,9.75
2022-11-03T09:13:57.967Z,9.82
2022-11-03T09:16:25.180Z,9.43
2022-11-03T09:18:53.094Z,9.48
2022-11-03T09:21:20.229Z,9.60
2022-11-03T09:23:47.349Z,8.27
2022-11-03T09:26:14.702Z,9.52
2022-11-03T09:28:41.877Z,9.55
2022-11-03T09:31:08.964Z,9.20
2022-11-03T09:33:36.077Z,10.45
2022-11-03T09:36:03.329Z,9.45
2022-11-03T09:38:30.442Z,8.30
2022-11-03T09:40:57.789Z,8.70
2022-11-03T09:43:24.909Z,7.65
2022-11-03T09:45:52.028Z,8.30
2022-11-03T09:48:19.141Z,7.78
2022-11-03T09:50:46.934Z,6.95
2022-11-03T09:53:14.408Z,6.80
2022-11-03T09:55:41.507Z,6.78
2022-11-03T09:58:13.779Z,6.20
2022-11-03T10:00:40.936Z,5.18
2022-11-03T10:03:10.741Z,5.10
2022-11-03T10:05:37.960Z,5.60
2022-11-03T10:08:06.422Z,5.03
2022-11-03T10:10:33.543Z,5.13
2022-11-03T10:13:00.770Z,4.80
2022-11-03T10:15:27.921Z,4.25
2022-11-03T10:17:55.021Z,4.57
2022-11-03T10:20:22.496Z,3.63
2022-11-03T10:22:52.322Z,3.85
2022-11-03T10:25:26.435Z,2.88
2022-11-03T10:28:18.908Z,2.70
2022-11-03T10:31:10.066Z,3.05
2022-11-03T10:33:36.055Z,2.83
2022-11-03T10:36:08.369Z,3.05
2022-11-03T10:38:36.329Z,3.10
2022-11-03T10:41:25.740Z,3.78
2022-11-03T10:44:02.944Z,3.40
2022-11-03T10:46:49.199Z,3.55
2022-11-03T10:49:18.511Z,3.28
2022-11-03T10:51:46.270Z,4.78
2022-11-03T10:54:16.762Z,3.60
2022-11-03T10:56:44.186Z,3.25
2022-11-03T10:59:18.203Z,3.78
2022-11-03T11:01:45.487Z,3.40
2022-11-03T11:04:14.935Z,3.63
2022-11-03T11:06:42.105Z,3.30
2022-11-03T11:09:12.929Z,4.07
2022-11-03T11:11:39.999Z,5.55
2022-11-03T11:14:25.195Z,4.70
2022-11-03T11:16:53.091Z,4.15
2022-11-03T11:19:23.853Z,4.32
2022-11-03T11:21:50.969Z,4.50
2022-11-03T11:24:36.864Z,4.70
2022-11-03T11:27:04.103Z,4.70
2022-11-03T11:29:31.177Z,4.35
2022-11-03T11:31:58.266Z,4.80
2022-11-03T11:34:37.405Z,5.30
2022-11-03T11:37:24.795Z,4.00
2022-11-03T11:39:51.919Z,3.67
2022-11-03T11:42:20.090Z,3.97
2022-11-03T11:44:50.528Z,3.42
2022-11-03T11:47:25.024Z,4.32
2022-11-03T11:50:07.368Z,3.78
2022-11-03T11:52:39.983Z,4.68
2022-11-03T11:55:07.401Z,4.35
2022-11-03T11:57:34.869Z,3.75
2022-11-03T12:00:02.576Z,4.07
2022-11-03T12:02:30.152Z,4.00
2022-11-03T12:05:04.882Z,4.18
2022-11-03T12:07:35.474Z,3.50
2022-11-03T12:10:22.776Z,3.70
2022-11-03T12:12:49.999Z,3.58
2022-11-03T12:15:35.879Z,3.70
2022-11-03T12:18:22.929Z,3.63
2022-11-03T12:20:50.122Z,3.20
2022-11-03T12:23:36.318Z,3.45
2022-11-03T12:26:04.349Z,4.32
2022-11-03T12:28:40.380Z,4.63
2022-11-03T12:31:07.515Z,3.83
2022-11-03T12:33:34.634Z,4.50
2022-11-03T12:36:01.750Z,3.53
2022-11-03T12:38:28.975Z,3.03
2022-11-03T12:40:56.136Z,2.75
2022-11-03T12:43:23.224Z,3.60
2022-11-03T12:45:50.383Z,6.32
2022-11-03T12:48:19.589Z,6.03
2022-11-03T12:50:46.792Z,4.60
2022-11-03T12:53:13.921Z,3.17
2022-11-03T12:55:44.603Z,4.95
2022-11-03T12:58:12.111Z,5.22
2022-11-03T13:00:39.332Z,3.97
2022-11-03T13:03:06.938Z,3.85
2022-11-03T13:05:34.306Z,3.30
2022-11-03T13:08:01.462Z,3.50
2022-11-03T13:10:28.552Z,3.63
2022-11-03T13:12:55.662Z,3.60
2022-11-03T13:15:22.802Z,3.88
2022-11-03T13:18:12.193Z,3.90
2022-11-03T13:20:37.308Z,4.25
2022-11-03T13:23:05.116Z,4.30
2022-11-03T13:25:32.600Z,4.15
2022-11-03T13:27:59.868Z,4.25
2022-11-03T13:30:27.480Z,4.60
2022-11-03T13:32:54.621Z,10.45
2022-11-03T13:35:21.749Z,5.20
2022-11-03T13:37:48.883Z,3.65
2022-11-03T13:40:35.710Z,3.90
2022-11-03T13:43:03.418Z,4.57
2022-11-03T13:45:30.544Z,3.50
2022-11-03T13:48:48.485Z,3.72
2022-11-03T13:50:45.684Z,3.53
2022-11-03T13:56:05.245Z,3.40
2022-11-03T14:01:23.194Z,3.58
2022-11-03T14:06:37.700Z,5.95
2022-11-03T14:09:04.821Z,6.28
2022-11-03T14:11:50.441Z,5.88
2022-11-03T14:14:17.572Z,7.57
2022-11-03T14:16:44.685Z,6.70
2022-11-03T14:19:11.824Z,5.60
2022-11-03T14:21:42.630Z,5.63
2022-11-03T14:24:09.715Z,6.35
2022-11-03T14:26:44.182Z,7.35
2022-11-03T14:29:11.358Z,7.63
2022-11-03T14:31:38.476Z,10.55
2022-11-03T14:34:05.548Z,10.38
2022-11-03T14:36:32.895Z,9.75
2022-11-03T14:39:00.116Z,9.50
2022-11-03T14:41:46.005Z,9.68
2022-11-03T14:44:13.121Z,12.15
2022-11-03T14:46:40.189Z,11.48
2022-11-03T14:49:07.296Z,11.65
2022-11-03T14:51:34.418Z,11.50
2022-11-03T14:54:01.519Z,11.65
2022-11-03T14:56:28.675Z,13.52
2022-11-03T14:58:55.841Z,15.27
2022-11-03T15:01:23.047Z,15.90
2022-11-03T15:03:50.252Z,14.10
2022-11-03T15:06:17.397Z,20.45
2022-11-03T15:08:44.514Z,22.95
2022-11-03T15:11:11.660Z,24.50
2022-11-03T15:13:43.983Z,23.17
2022-11-03T15:16:14.232Z,38.47
2022-11-03T15:18:41.661Z,39.22
2022-11-03T15:21:08.759Z,33.65
2022-11-03T15:26:22.973Z,33.13
2022-11-03T15:28:50.068Z,34.80
2022-11-03T15:31:17.148Z,37.47
2022-11-03T15:33:44.464Z,31.42
2022-11-03T15:36:12.161Z,19.48
2022-11-03T15:38:39.331Z,21.88
2022-11-03T15:41:15.788Z,15.13
2022-11-03T15:43:51.737Z,17.58
2022-11-03T15:46:20.063Z,21.58
2022-11-03T15:48:49.120Z,21.60
2022-11-03T15:51:16.350Z,23.40
2022-11-03T15:53:43.860Z,29.65
2022-11-03T15:56:10.991Z,19.33
2022-11-03T15:58:38.136Z,40.33
2022-11-03T16:01:05.659Z,54.63
2022-11-03T16:03:33.174Z,35.17
2022-11-03T16:06:00.342Z,26.17
2022-11-03T16:08:27.499Z,25.33
2022-11-03T16:10:57.827Z,32.90
2022-11-03T16:13:25.648Z,34.90
2022-11-03T16:15:54.555Z,32.28
2022-11-03T16:18:21.829Z,57.00
2022-11-03T16:20:48.970Z,55.22
2022-11-03T16:23:16.073Z,47.97
2022-11-03T16:25:43.148Z,70.32
2022-11-03T16:28:10.605Z,59.47
2022-11-03T16:30:38.786Z,70.45
2022-11-03T16:33:06.106Z,89.75
2022-11-03T16:35:33.249Z,87.68
2022-11-03T16:38:00.854Z,74.90
2022-11-03T16:40:28.095Z,60.20
2022-11-03T16:42:55.415Z,67.63
2022-11-03T16:45:27.191Z,90.47
2022-11-03T16:47:54.373Z,81.10
2022-11-03T16:50:21.534Z,60.38
2022-11-03T16:52:49.285Z,63.13
2022-11-03T16:55:16.951Z,64.32
2022-11-03T16:57:44.079Z,85.35
2022-11-03T17:00:15.473Z,87.97
2022-11-03T17:02:42.619Z,81.47
2022-11-03T17:05:09.921Z,83.97
2022-11-03T17:07:37.125Z,110.93
2022-11-03T17:10:04.944Z,91.30
2022-11-03T17:12:32.045Z,98.93
2022-11-03T17:14:59.152Z,116.90
2022-11-03T17:17:26.312Z,111.10
2022-11-03T17:19:53.468Z,107.45
2022-11-03T17:22:22.225Z,82.22
2022-11-03T17:24:49.559Z,56.65
2022-11-03T17:27:16.623Z,75.32
2022-11-03T17:29:44.945Z,81.47
2022-11-03T17:32:13.743Z,95.40
2022-11-03T17:34:40.834Z,94.90
2022-11-03T17:37:08.072Z,89.85
2022-11-03T17:39:37.095Z,86.47
2022-11-03T17:42:24.886Z,83.70
2022-11-03T17:44:52.733Z,85.68
2022-11-03T17:47:20.553Z,71.90
2022-11-03T17:49:47.755Z,61.40
2022-11-03T17:52:14.819Z,66.57
2022-11-03T17:54:41.876Z,54.88
2022-11-03T17:57:10.396Z,46.17
2022-11-03T17:59:38.033Z,67.15
2022-11-03T18:02:05.300Z,79.90
2022-11-03T18:04:32.525Z,70.03
2022-11-03T18:06:59.615Z,65.57
2022-11-03T18:09:26.762Z,67.50
2022-11-03T18:12:12.621Z,70.93
2022-11-03T18:14:39.696Z,65.15
2022-11-03T18:17:06.801Z,66.28
2022-11-03T18:19:33.944Z,67.38
2022-11-03T18:22:01.026Z,73.05
2022-11-03T18:24:28.198Z,79.78
2022-11-03T18:26:55.472Z,82.50
2022-11-03T18:29:22.602Z,82.20
2022-11-03T18:31:50.687Z,76.40
2022-11-03T18:34:19.653Z,78.63
2022-11-03T18:36:46.771Z,85.53
2022-11-03T18:39:23.889Z,94.50
2022-11-03T18:41:51.044Z,89.57
2022-11-03T18:44:21.209Z,85.18
2022-11-03T18:46:48.793Z,84.53
2022-11-03T18:49:16.304Z,81.70
2022-11-03T18:51:45.725Z,85.15
2022-11-03T18:54:13.655Z,108.97
2022-11-03T18:56:40.813Z,100.72
2022-11-03T18:59:09.625Z,95.75
2022-11-03T19:01:36.858Z,91.57
2022-11-03T19:04:04.194Z,95.28
2022-11-03T19:06:31.282Z,99.35
2022-11-03T19:08:59.193Z,98.50
2022-11-03T19:11:26.493Z,91.90
2022-11-03T19:13:53.661Z,82.15
2022-11-03T19:16:21.958Z,87.55
2022-11-03T19:18:49.130Z,86.18
2022-11-03T19:21:16.285Z,82.45
2022-11-03T19:23:47.765Z,80.95
2022-11-03T19:26:23.096Z,86.00
2022-11-03T19:29:01.240Z,83.00
2022-11-03T19:31:31.981Z,82.43
2022-11-03T19:33:59.141Z,90.18
2022-11-03T19:36:26.934Z,99.35
2022-11-03T19:38:54.038Z,109.75
2022-11-03T19:41:39.898Z,128.60
2022-11-03T19:44:10.000Z,116.35
2022-11-03T19:46:37.085Z,117.40
2022-11-03T19:49:04.292Z,117.88
2022-11-03T19:51:31.397Z,121.38
2022-11-03T19:53:58.513Z,115.75
2022-11-03T19:56:25.672Z,124.97
2022-11-03T19:58:52.765Z,132.52
2022-11-03T20:01:19.927Z,134.68
2022-11-03T20:03:47.195Z,137.70
2022-11-03T20:06:19.122Z,117.30
2022-11-03T20:08:47.388Z,112.57
2022-11-03T20:11:14.570Z,107.55
2022-11-03T20:13:42.156Z,109.50
2022-11-03T20:16:12.887Z,107.38
2022-11-03T20:18:40.853Z,99.87
2022-11-03T20:21:08.229Z,102.63
2022-11-03T20:23:35.565Z,100.72
2022-11-03T20:26:02.657Z,104.05
2022-11-03T20:28:30.333Z,100.82
2022-11-03T20:30:57.495Z,100.35
2022-11-03T20:33:24.830Z,107.88
2022-11-03T20:35:52.351Z,107.95
2022-11-03T20:38:19.754Z,106.73
2022-11-03T20:40:46.911Z,106.78
2022-11-03T20:43:22.548Z,98.50
2022-11-03T20:45:49.622Z,97.90
2022-11-03T20:48:16.689Z,91.57
2022-11-03T20:50:43.813Z,95.00
2022-11-03T20:53:20.640Z,93.43
2022-11-03T20:55:47.779Z,88.15
2022-11-03T20:58:16.042Z,89.25
2022-11-03T21:00:43.389Z,88.68
2022-11-03T21:03:37.701Z,83.82
2022-11-03T21:06:14.802Z,84.10
2022-11-03T21:08:41.988Z,84.15
2022-11-03T21:11:27.149Z,83.03
2022-11-03T21:13:58.342Z,89.20
2022-11-03T21:16:44.210Z,91.25
2022-11-03T21:19:45.883Z,85.97
2022-11-03T21:22:37.937Z,83.75
2022-11-03T21:25:13.971Z,86.13
2022-11-03T21:27:42.216Z,83.70
2022-11-03T21:30:11.214Z,86.27
2022-11-03T21:32:38.338Z,81.30
2022-11-03T21:35:06.097Z,83.77
2022-11-03T21:37:33.179Z,79.40
2022-11-03T21:40:00.295Z,73.90
2022-11-03T21:42:45.964Z,77.25
2022-11-03T21:45:13.444Z,83.03
2022-11-03T21:48:00.867Z,77.47
2022-11-03T21:50:27.987Z,71.47
2022-11-03T21:52:55.059Z,70.97
2022-11-03T21:55:22.136Z,71.43
2022-11-03T21:57:49.259Z,62.10
2022-11-03T22:00:16.720Z,57.23
2022-11-03T22:02:43.795Z,60.30
2022-11-03T22:05:11.254Z,48.33
2022-11-03T22:07:38.391Z,43.60
2022-11-03T22:10:05.733Z,45.00
2022-11-03T22:12:32.879Z,40.17
2022-11-03T22:15:18.580Z,45.25
2022-11-03T22:17:45.709Z,43.33
2022-11-03T22:20:31.489Z,47.13
2022-11-03T22:23:20.493Z,40.92
2022-11-03T22:26:06.346Z,43.40
2022-11-03T22:28:33.505Z,63.10
2022-11-03T22:31:22.581Z,51.27
2022-11-03T22:34:08.624Z,44.50
2022-11-03T22:36:35.712Z,48.00
2022-11-03T22:39:21.309Z,61.70
2022-11-03T22:42:07.125Z,55.47
2022-11-03T22:44:52.957Z,52.87
2022-11-03T22:47:20.024Z,53.80
2022-11-03T22:49:47.100Z,59.17
2022-11-03T22:52:14.232Z,52.37
2022-11-03T22:54:41.304Z,50.63
2022-11-03T22:57:11.261Z,47.00
2022-11-03T22:59:38.424Z,47.50
2022-11-03T23:02:05.606Z,47.57
2022-11-03T23:04:32.760Z,50.23
2022-11-03T23:06:59.868Z,43.88
2022-11-03T23:09:26.943Z,39.53
2022-11-03T23:11:54.022Z,38.75
2022-11-03T23:14:21.488Z,43.20
2022-11-03T23:16:48.575Z,45.17
2022-11-03T23:19:34.412Z,36.00
2022-11-03T23:22:01.762Z,19.83
2022-11-03T23:24:47.375Z,28.08
2022-11-03T23:27:14.522Z,44.90
2022-11-03T23:29:41.620Z,41.97
2022-11-03T23:32:08.831Z,34.92
2022-11-03T23:34:35.942Z,31.00
2022-11-03T23:37:03.240Z,26.35
2022-11-03T23:39:30.358Z,24.77
2022-11-03T23:41:57.499Z,35.90
2022-11-03T23:44:24.585Z,32.33
2022-11-03T23:47:10.215Z,34.97
2022-11-03T23:49:37.286Z,35.65
2022-11-03T23:52:04.437Z,30.67
2022-11-03T23:54:31.608Z,26.85
2022-11-03T23:57:17.196Z,27.60
